Route Details

Aircraft Information
Group: North America Fleet
Types: B738, B752, B762, B763
Route Data
Distance: 195nm
Duration: 1h 10m
Origin METAR: KRDU 181651Z 02004KT 10SM SCT046 SCT250 28/16 A3002 RMK AO2 SLP159 T02830161
Dest. METAR: KIAD 181652Z 33004KT 10SM FEW045 27/15 A2999 RMK AO2 SLP151 T02720150
Freight Data
(for Aug 18, 2022)
Load Factor:
70%
Manifested Cargo: 43,917lbs
Financial History
Total Freight: 87,003lbs
Average Load: 0lbs/flt
Fuel Used: 6,156lbs
Avg. Fuel Used: 0lbs/flt
Fuel Expense: $4,974
Avg. Fuel Expense: $0
Avg. Fuel Cost: $0/lbs
Total Gross Income: $221,858
Pilot Pay: $239
Total Expenses: $45,564
Total Revenue: $171,156
Average Revenue: $0

Capitol Logistics 451




KRDU
Raleigh Durham International Airport
Raleigh-durham, North Carolina
KIAD
Washington Dulles International Airport
Dulles, Virginia

Activity Log

Date Flight Route Aircraft Duration
07/12/2022 CPX451 OXFRD5 CARML DCT DORRN CAVLR4 B763 0h 40m